createdAt,value
2018-09-26T00:00:12.763Z,2.52
2018-09-26T00:00:48.644Z,2.02
2018-09-26T00:01:27.066Z,2.20
2018-09-26T00:02:04.899Z,2.30
2018-09-26T00:02:44.918Z,2.17
2018-09-26T00:03:23.430Z,2.40
2018-09-26T00:04:01.173Z,2.55
2018-09-26T00:04:36.650Z,2.45
2018-09-26T00:05:10.868Z,2.42
2018-09-26T00:05:44.128Z,2.40
2018-09-26T00:06:17.312Z,2.33
2018-09-26T00:06:50.957Z,2.15
2018-09-26T00:07:24.134Z,2.12
2018-09-26T00:07:57.418Z,2.12
2018-09-26T00:08:30.896Z,2.10
2018-09-26T00:09:07.271Z,2.15
2018-09-26T00:09:40.511Z,1.90
2018-09-26T00:10:13.746Z,2.58
2018-09-26T00:10:47.639Z,1.80
2018-09-26T00:11:20.864Z,2.30
2018-09-26T00:11:54.131Z,2.20
2018-09-26T00:12:27.278Z,2.10
2018-09-26T00:13:00.463Z,1.95
2018-09-26T00:13:33.679Z,2.22
2018-09-26T00:14:06.925Z,2.27
2018-09-26T00:14:40.260Z,2.42
2018-09-26T00:15:13.466Z,2.15
2018-09-26T00:15:46.996Z,1.90
2018-09-26T00:16:20.308Z,1.95
2018-09-26T00:16:53.686Z,2.25
2018-09-26T00:17:26.914Z,1.95
2018-09-26T00:18:00.179Z,2.20
2018-09-26T00:18:33.371Z,1.95
2018-09-26T00:19:06.662Z,1.98
2018-09-26T00:19:39.841Z,2.92
2018-09-26T00:20:12.994Z,2.00
2018-09-26T00:20:46.130Z,2.37
2018-09-26T00:21:19.459Z,2.17
2018-09-26T00:21:52.693Z,2.17
2018-09-26T00:22:25.919Z,1.92
2018-09-26T00:24:03.458Z,2.02
2018-09-26T00:24:36.693Z,2.33
2018-09-26T00:25:09.861Z,2.00
2018-09-26T00:25:43.032Z,2.50
2018-09-26T00:26:16.243Z,2.35
2018-09-26T00:26:49.438Z,2.30
2018-09-26T00:27:22.633Z,2.00
2018-09-26T00:27:55.910Z,1.98
2018-09-26T00:28:35.722Z,1.87
2018-09-26T00:29:08.966Z,2.40
2018-09-26T00:29:42.165Z,2.92
2018-09-26T00:30:15.494Z,1.90
2018-09-26T00:30:48.666Z,2.20
2018-09-26T00:31:21.822Z,2.30
2018-09-26T00:31:55.121Z,2.30
2018-09-26T00:32:28.577Z,2.00
2018-09-26T00:33:01.756Z,2.08
2018-09-26T00:33:34.974Z,2.67
2018-09-26T00:34:08.254Z,1.90
2018-09-26T00:34:41.550Z,2.25
2018-09-26T00:35:14.802Z,3.25
2018-09-26T00:35:48.542Z,3.00
2018-09-26T00:36:21.768Z,2.00
2018-09-26T00:36:55.285Z,2.10
2018-09-26T00:37:28.505Z,2.65
2018-09-26T00:38:01.679Z,2.20
2018-09-26T00:38:35.095Z,2.10
2018-09-26T00:39:08.287Z,1.98
2018-09-26T00:39:41.496Z,1.40
2018-09-26T00:40:14.674Z,1.90
2018-09-26T00:40:47.847Z,2.15
2018-09-26T00:41:21.304Z,1.70
2018-09-26T00:41:54.569Z,1.90
2018-09-26T00:42:27.748Z,1.77
2018-09-26T00:43:00.957Z,1.60
2018-09-26T00:43:34.146Z,2.87
2018-09-26T00:44:07.394Z,2.65
2018-09-26T00:44:40.561Z,2.40
2018-09-26T00:45:13.757Z,1.70
2018-09-26T00:45:46.958Z,2.33
2018-09-26T00:46:20.134Z,2.20
2018-09-26T00:46:53.364Z,1.47
2018-09-26T00:47:26.588Z,2.00
2018-09-26T00:47:59.823Z,2.33
2018-09-26T00:48:32.984Z,1.65
2018-09-26T00:49:06.334Z,2.10
2018-09-26T00:50:10.467Z,2.65
2018-09-26T00:50:43.649Z,1.62
2018-09-26T00:51:16.871Z,2.33
2018-09-26T00:51:50.282Z,1.65
2018-09-26T00:52:23.469Z,2.00
2018-09-26T00:52:56.832Z,2.58
2018-09-26T00:53:30.021Z,2.25
2018-09-26T00:54:03.378Z,2.60
2018-09-26T00:54:36.647Z,2.00
2018-09-26T00:55:09.858Z,2.12
2018-09-26T00:55:43.033Z,2.10
2018-09-26T00:56:16.241Z,2.25
2018-09-26T00:56:49.640Z,1.70
2018-09-26T00:57:22.842Z,2.27
2018-09-26T00:57:56.026Z,2.02
2018-09-26T00:58:29.751Z,1.75
2018-09-26T00:59:02.947Z,2.00
2018-09-26T00:59:36.282Z,2.12
2018-09-26T01:00:09.733Z,2.10
2018-09-26T01:00:42.890Z,1.67
2018-09-26T01:01:16.087Z,2.00
2018-09-26T01:01:49.284Z,2.55
2018-09-26T01:02:22.621Z,2.08
2018-09-26T01:02:56.116Z,2.85
2018-09-26T01:03:29.365Z,2.10
2018-09-26T01:04:02.676Z,1.80
2018-09-26T01:04:35.876Z,2.22
2018-09-26T01:05:09.086Z,1.40
2018-09-26T01:05:42.257Z,1.65
2018-09-26T01:06:15.487Z,2.20
2018-09-26T01:06:48.740Z,1.90
2018-09-26T01:07:21.911Z,1.90
2018-09-26T01:07:55.206Z,2.10
2018-09-26T01:08:28.442Z,1.87
2018-09-26T01:09:01.635Z,2.12
2018-09-26T01:09:34.820Z,2.05
2018-09-26T01:10:08.027Z,1.75
2018-09-26T01:10:41.242Z,1.80
2018-09-26T01:11:14.402Z,1.95
2018-09-26T01:11:47.582Z,2.47
2018-09-26T01:12:20.791Z,1.80
2018-09-26T01:12:54.046Z,1.65
2018-09-26T01:13:27.247Z,2.20
2018-09-26T01:14:00.437Z,1.60
2018-09-26T01:14:33.636Z,1.30
2018-09-26T01:15:06.895Z,1.87
2018-09-26T01:15:40.827Z,1.65
2018-09-26T01:16:14.025Z,1.70
2018-09-26T01:16:47.219Z,2.20
2018-09-26T01:17:20.468Z,1.40
2018-09-26T01:17:53.662Z,1.70
2018-09-26T01:18:27.363Z,1.62
2018-09-26T01:19:00.967Z,1.42
2018-09-26T01:19:34.151Z,2.00
2018-09-26T01:20:07.802Z,1.40
2018-09-26T01:20:42.627Z,1.52
2018-09-26T01:21:15.815Z,1.85
2018-09-26T01:21:48.986Z,2.10
2018-09-26T01:22:22.225Z,1.50
2018-09-26T01:22:55.465Z,1.95
2018-09-26T01:23:28.629Z,2.42
2018-09-26T01:24:01.798Z,1.98
2018-09-26T01:24:34.989Z,2.30
2018-09-26T01:25:08.198Z,1.40
2018-09-26T01:25:42.220Z,2.40
2018-09-26T01:26:15.404Z,1.42
2018-09-26T01:26:48.583Z,2.30
2018-09-26T01:27:22.373Z,1.80
2018-09-26T01:27:55.705Z,1.95
2018-09-26T01:28:28.894Z,1.80
2018-09-26T01:29:02.069Z,1.60
2018-09-26T01:29:35.249Z,2.30
2018-09-26T01:30:08.423Z,2.02
2018-09-26T01:30:41.614Z,2.00
2018-09-26T01:31:14.805Z,1.50
2018-09-26T01:31:47.969Z,2.20
2018-09-26T01:32:21.160Z,2.10
2018-09-26T01:32:54.383Z,1.90
2018-09-26T01:33:27.966Z,1.87
2018-09-26T01:34:01.195Z,1.85
2018-09-26T01:34:34.359Z,1.52
2018-09-26T01:35:07.753Z,2.02
2018-09-26T01:35:40.929Z,1.70
2018-09-26T01:36:14.135Z,1.82
2018-09-26T01:36:47.378Z,1.57
2018-09-26T01:37:20.531Z,1.95
2018-09-26T01:37:54.007Z,1.50
2018-09-26T01:38:27.154Z,2.25
2018-09-26T01:39:00.359Z,1.60
2018-09-26T01:39:33.564Z,2.50
2018-09-26T01:40:07.669Z,1.50
2018-09-26T01:40:40.848Z,2.00
2018-09-26T01:41:20.792Z,2.20
2018-09-26T01:41:54.002Z,2.20
2018-09-26T01:42:27.443Z,1.67
2018-09-26T01:43:00.635Z,1.70
2018-09-26T01:43:33.873Z,1.65
2018-09-26T01:44:07.324Z,2.05
2018-09-26T01:44:40.511Z,2.10
2018-09-26T01:45:13.710Z,2.35
2018-09-26T01:45:46.879Z,2.52
2018-09-26T01:46:20.078Z,1.85
2018-09-26T01:46:53.380Z,1.62
2018-09-26T01:47:26.599Z,1.70
2018-09-26T01:48:00.283Z,2.00
2018-09-26T01:48:33.549Z,2.10
2018-09-26T01:49:06.741Z,2.08
2018-09-26T01:49:40.015Z,1.80
2018-09-26T01:50:16.106Z,2.10
2018-09-26T01:50:49.347Z,2.27
2018-09-26T01:51:22.530Z,1.50
2018-09-26T01:51:55.988Z,1.80
2018-09-26T01:52:29.382Z,2.17
2018-09-26T01:53:02.578Z,1.90
2018-09-26T01:53:35.781Z,2.17
2018-09-26T01:54:40.018Z,2.15
2018-09-26T01:55:13.219Z,1.70
2018-09-26T01:55:46.388Z,1.98
2018-09-26T01:56:19.635Z,1.80
2018-09-26T01:56:52.814Z,1.40
2018-09-26T01:57:26.055Z,2.40
2018-09-26T01:57:59.257Z,2.00
2018-09-26T01:58:32.408Z,2.27
2018-09-26T01:59:05.624Z,2.10
2018-09-26T01:59:38.892Z,2.15
2018-09-26T02:00:12.051Z,2.05
2018-09-26T02:00:45.250Z,2.02
2018-09-26T02:01:18.402Z,2.00
2018-09-26T02:01:51.989Z,2.55
2018-09-26T02:02:25.329Z,2.15
2018-09-26T02:02:58.753Z,1.90
2018-09-26T02:03:31.898Z,2.20
2018-09-26T02:04:05.081Z,1.85
2018-09-26T02:04:38.345Z,1.85
2018-09-26T02:05:11.531Z,1.70
2018-09-26T02:05:44.702Z,2.00
2018-09-26T02:06:17.914Z,2.72
2018-09-26T02:06:51.078Z,2.00
2018-09-26T02:07:24.288Z,2.12
2018-09-26T02:07:57.517Z,2.00
2018-09-26T02:08:30.706Z,2.02
2018-09-26T02:09:05.942Z,1.75
2018-09-26T02:09:39.102Z,2.10
2018-09-26T02:10:12.483Z,2.35
2018-09-26T02:10:45.678Z,2.70
2018-09-26T02:11:18.960Z,1.92
2018-09-26T02:11:52.156Z,1.98
2018-09-26T02:12:25.442Z,2.10
2018-09-26T02:12:58.674Z,1.65
2018-09-26T02:13:31.896Z,2.33
2018-09-26T02:14:05.090Z,2.10
2018-09-26T02:14:38.250Z,2.15
2018-09-26T02:15:11.461Z,2.85
2018-09-26T02:15:44.676Z,2.00
2018-09-26T02:16:17.852Z,2.12
2018-09-26T02:16:51.033Z,2.00
2018-09-26T02:17:24.232Z,2.37
2018-09-26T02:17:57.419Z,2.15
2018-09-26T02:18:30.598Z,2.05
2018-09-26T02:19:03.851Z,2.10
2018-09-26T02:19:37.056Z,2.42
2018-09-26T02:20:10.272Z,2.22
2018-09-26T02:20:43.485Z,2.50
2018-09-26T02:21:17.206Z,1.82
2018-09-26T02:21:50.667Z,1.82
2018-09-26T02:22:23.842Z,2.00
2018-09-26T02:22:59.810Z,3.15
2018-09-26T02:23:39.603Z,1.80
2018-09-26T02:24:12.937Z,2.20
2018-09-26T02:24:46.288Z,2.40
2018-09-26T02:25:19.547Z,2.22
2018-09-26T02:25:52.809Z,2.20
2018-09-26T02:26:25.984Z,2.02
2018-09-26T02:26:59.414Z,2.05
2018-09-26T02:27:32.630Z,1.85
2018-09-26T02:28:05.804Z,1.98
2018-09-26T02:28:39.546Z,2.30
2018-09-26T02:29:13.366Z,2.00
2018-09-26T02:29:46.603Z,1.90
2018-09-26T02:30:19.780Z,2.20
2018-09-26T02:30:52.933Z,1.75
2018-09-26T02:31:26.121Z,1.98
2018-09-26T02:31:59.288Z,2.12
2018-09-26T02:32:32.465Z,1.87
2018-09-26T02:33:05.854Z,2.05
2018-09-26T02:33:39.009Z,1.90
2018-09-26T02:34:12.177Z,2.40
2018-09-26T02:34:45.338Z,1.82
2018-09-26T02:35:18.488Z,2.27
2018-09-26T02:35:51.673Z,2.10
2018-09-26T02:36:25.362Z,1.65
2018-09-26T02:36:58.582Z,2.30
2018-09-26T02:37:31.769Z,1.85
2018-09-26T02:38:05.202Z,2.10
2018-09-26T02:38:38.488Z,2.22
2018-09-26T02:39:11.659Z,2.00
2018-09-26T02:39:44.901Z,2.30
2018-09-26T02:40:18.107Z,2.40
2018-09-26T02:40:51.306Z,2.58
2018-09-26T02:41:24.485Z,2.12
2018-09-26T02:41:57.653Z,2.20
2018-09-26T02:42:30.854Z,2.60
2018-09-26T02:43:04.044Z,2.30
2018-09-26T02:43:37.264Z,2.55
2018-09-26T02:44:11.191Z,2.22
2018-09-26T02:44:44.355Z,2.20
2018-09-26T02:45:17.561Z,2.33
2018-09-26T02:45:50.760Z,2.27
2018-09-26T02:46:24.157Z,2.40
2018-09-26T02:46:57.470Z,2.00
2018-09-26T02:47:30.739Z,2.20
2018-09-26T02:48:04.021Z,2.27
2018-09-26T02:48:42.417Z,2.40
2018-09-26T02:49:15.630Z,2.70
2018-09-26T02:49:48.793Z,1.82
2018-09-26T02:50:21.980Z,2.00
2018-09-26T02:50:55.155Z,2.17
2018-09-26T02:51:28.486Z,2.20
2018-09-26T02:52:01.670Z,2.30
2018-09-26T02:52:35.079Z,2.15
2018-09-26T02:53:08.286Z,2.30
2018-09-26T02:53:41.456Z,4.20
2018-09-26T02:54:14.646Z,9.53
2018-09-26T02:54:47.839Z,8.05
2018-09-26T02:55:21.047Z,4.50
2018-09-26T02:55:54.274Z,3.70
2018-09-26T02:56:27.408Z,3.08
2018-09-26T02:57:00.778Z,2.62
2018-09-26T02:57:34.149Z,2.00
2018-09-26T02:58:08.289Z,2.60
2018-09-26T02:58:41.581Z,1.87
2018-09-26T02:59:14.938Z,1.92
2018-09-26T02:59:48.085Z,2.75
2018-09-26T03:00:21.272Z,2.37
2018-09-26T03:00:54.481Z,2.20
2018-09-26T03:01:27.676Z,1.82
2018-09-26T03:02:00.886Z,1.85
2018-09-26T03:02:34.182Z,2.02
2018-09-26T03:04:10.885Z,1.80
2018-09-26T03:04:44.040Z,2.20
2018-09-26T03:05:17.241Z,2.83
2018-09-26T03:05:51.040Z,2.22
2018-09-26T03:06:24.219Z,2.02
2018-09-26T03:06:57.596Z,2.02
2018-09-26T03:07:30.782Z,2.20
2018-09-26T03:08:04.177Z,2.30
2018-09-26T03:08:37.360Z,2.55
2018-09-26T03:09:10.933Z,1.85
2018-09-26T03:09:44.171Z,2.27
2018-09-26T03:10:17.939Z,2.25
2018-09-26T03:10:51.308Z,2.20
2018-09-26T03:11:24.415Z,2.35
2018-09-26T03:11:57.628Z,2.45
2018-09-26T03:12:30.832Z,2.00
2018-09-26T03:13:04.139Z,2.70
2018-09-26T03:13:37.978Z,1.80
2018-09-26T03:14:11.127Z,2.12
2018-09-26T03:14:44.371Z,2.17
2018-09-26T03:15:17.867Z,1.52
2018-09-26T03:15:51.747Z,2.70
2018-09-26T03:16:24.979Z,2.22
2018-09-26T03:16:58.189Z,2.12
2018-09-26T03:17:31.464Z,1.72
2018-09-26T03:18:04.588Z,2.02
2018-09-26T03:18:38.913Z,2.60
2018-09-26T03:19:12.148Z,2.40
2018-09-26T03:19:45.355Z,2.60
2018-09-26T03:20:18.509Z,2.47
2018-09-26T03:20:51.677Z,3.62
2018-09-26T03:21:24.901Z,3.40
2018-09-26T03:21:58.634Z,2.30
2018-09-26T03:22:31.859Z,2.00
2018-09-26T03:23:05.098Z,2.00
2018-09-26T03:23:38.728Z,2.20
2018-09-26T03:24:12.423Z,2.08
2018-09-26T03:24:45.641Z,2.25
2018-09-26T03:25:19.189Z,2.47
2018-09-26T03:25:52.428Z,1.95
2018-09-26T03:26:25.789Z,1.95
2018-09-26T03:26:59.014Z,1.80
2018-09-26T03:27:32.195Z,1.72
2018-09-26T03:28:05.657Z,1.90
2018-09-26T03:28:39.304Z,1.70
2018-09-26T03:29:12.445Z,1.50
2018-09-26T03:29:45.930Z,2.47
2018-09-26T03:30:19.136Z,1.90
2018-09-26T03:30:52.335Z,2.35
2018-09-26T03:31:25.779Z,1.98
2018-09-26T03:31:59.025Z,2.30
2018-09-26T03:32:32.212Z,2.25
2018-09-26T03:33:05.651Z,2.20
2018-09-26T03:33:39.047Z,2.37
2018-09-26T03:34:12.187Z,2.10
2018-09-26T03:34:45.377Z,2.00
2018-09-26T03:35:18.632Z,2.20
2018-09-26T03:35:51.917Z,2.60
2018-09-26T03:36:25.133Z,2.02
2018-09-26T03:36:58.311Z,2.12
2018-09-26T03:37:31.889Z,2.35
2018-09-26T03:38:05.099Z,2.52
2018-09-26T03:38:38.367Z,2.15
2018-09-26T03:39:11.655Z,2.10
2018-09-26T03:39:45.116Z,1.75
2018-09-26T03:40:18.335Z,1.80
2018-09-26T03:40:51.561Z,2.50
2018-09-26T03:41:24.818Z,2.50
2018-09-26T03:41:58.063Z,2.25
2018-09-26T03:42:31.307Z,2.10
2018-09-26T03:43:04.566Z,2.45
2018-09-26T03:43:37.946Z,2.10
2018-09-26T03:44:11.277Z,2.47
2018-09-26T03:44:44.536Z,2.70
2018-09-26T03:45:17.858Z,2.50
2018-09-26T03:45:51.190Z,2.85
2018-09-26T03:46:24.404Z,2.33
2018-09-26T03:46:57.816Z,1.92
2018-09-26T03:47:31.037Z,2.50
2018-09-26T03:48:04.245Z,2.52
2018-09-26T03:48:37.466Z,2.75
2018-09-26T03:49:10.715Z,2.92
2018-09-26T03:49:43.878Z,2.37
2018-09-26T03:50:17.106Z,1.90
2018-09-26T03:50:50.758Z,2.05
2018-09-26T03:51:23.984Z,2.20
2018-09-26T03:51:57.291Z,2.15
2018-09-26T03:52:30.554Z,2.20
2018-09-26T03:53:04.071Z,2.08
2018-09-26T03:53:37.265Z,2.58
2018-09-26T03:54:10.439Z,2.35
2018-09-26T03:54:43.623Z,2.52
2018-09-26T03:55:16.787Z,2.10
2018-09-26T03:55:50.121Z,2.15
2018-09-26T03:56:23.305Z,2.83
2018-09-26T03:56:56.502Z,2.30
2018-09-26T03:57:30.256Z,2.80
2018-09-26T03:58:03.632Z,2.62
2018-09-26T03:58:36.852Z,2.10
2018-09-26T03:59:10.075Z,2.58
2018-09-26T03:59:43.301Z,2.00
2018-09-26T04:00:16.690Z,2.42
2018-09-26T04:00:49.888Z,2.22
2018-09-26T04:01:23.079Z,2.20
2018-09-26T04:01:56.554Z,1.95
2018-09-26T04:02:29.803Z,2.37
2018-09-26T04:03:03.043Z,2.22
2018-09-26T04:03:36.566Z,2.22
2018-09-26T04:04:09.824Z,2.40
2018-09-26T04:04:43.077Z,2.58
2018-09-26T04:05:16.348Z,2.40
2018-09-26T04:05:49.623Z,2.20
2018-09-26T04:06:22.919Z,2.98
2018-09-26T04:06:56.160Z,2.27
2018-09-26T04:07:29.387Z,2.50
2018-09-26T04:08:02.597Z,2.40
2018-09-26T04:08:36.024Z,2.75
2018-09-26T04:09:10.938Z,2.77
2018-09-26T04:09:44.749Z,2.85
2018-09-26T04:10:18.057Z,2.27
2018-09-26T04:10:51.288Z,2.52
2018-09-26T04:11:31.027Z,2.75
2018-09-26T04:12:04.272Z,2.17
2018-09-26T04:12:37.632Z,2.58
2018-09-26T04:13:10.842Z,2.37
2018-09-26T04:13:44.618Z,2.42
2018-09-26T04:14:17.849Z,2.47
2018-09-26T04:14:51.005Z,1.92
2018-09-26T04:15:24.153Z,2.17
2018-09-26T04:15:57.350Z,2.10
2018-09-26T04:16:30.523Z,2.60
2018-09-26T04:17:03.758Z,2.30
2018-09-26T04:17:36.985Z,2.12
2018-09-26T04:18:10.362Z,2.15
2018-09-26T04:18:43.834Z,2.47
2018-09-26T04:19:17.029Z,1.95
2018-09-26T04:19:50.222Z,2.90
2018-09-26T04:20:23.457Z,3.00
2018-09-26T04:20:56.859Z,2.90
2018-09-26T04:21:30.021Z,2.10
2018-09-26T04:22:03.347Z,2.30
2018-09-26T04:22:36.525Z,2.60
2018-09-26T04:23:09.703Z,2.52
2018-09-26T04:23:42.889Z,2.30
2018-09-26T04:24:16.137Z,2.65
2018-09-26T04:24:49.482Z,2.00
2018-09-26T04:25:22.664Z,2.17
2018-09-26T04:25:56.276Z,1.85
2018-09-26T04:26:29.608Z,2.42
2018-09-26T04:27:02.977Z,2.52
2018-09-26T04:27:36.033Z,2.10
2018-09-26T04:28:09.461Z,2.15
2018-09-26T04:28:42.818Z,2.70
2018-09-26T04:29:16.155Z,2.08
2018-09-26T04:29:49.373Z,3.10
2018-09-26T04:30:22.710Z,2.42
2018-09-26T04:30:55.801Z,2.42
2018-09-26T04:31:28.986Z,2.60
2018-09-26T04:32:02.305Z,1.95
2018-09-26T04:32:35.861Z,2.10
2018-09-26T04:33:09.472Z,2.33
2018-09-26T04:33:42.591Z,3.50
2018-09-26T04:34:15.985Z,2.85
2018-09-26T04:34:49.409Z,2.92
2018-09-26T04:35:22.587Z,3.08
2018-09-26T04:35:55.946Z,3.50
2018-09-26T04:36:29.240Z,3.00
2018-09-26T04:37:03.314Z,2.90
2018-09-26T04:38:16.264Z,3.58
2018-09-26T04:38:49.744Z,3.25
2018-09-26T04:39:23.145Z,2.40
2018-09-26T04:39:56.299Z,2.72
2018-09-26T04:40:29.508Z,2.77
2018-09-26T04:41:02.780Z,2.80
2018-09-26T04:41:36.064Z,2.87
2018-09-26T04:42:09.448Z,3.02
2018-09-26T04:42:42.724Z,2.20
2018-09-26T04:43:16.005Z,2.55
2018-09-26T04:43:49.371Z,2.47
2018-09-26T04:44:22.569Z,2.70
2018-09-26T04:44:56.084Z,3.30
2018-09-26T04:45:30.256Z,3.37
2018-09-26T04:46:03.565Z,2.62
2018-09-26T04:46:37.715Z,3.15
2018-09-26T04:47:11.062Z,2.98
2018-09-26T04:47:44.294Z,3.00
2018-09-26T04:48:17.548Z,3.15
2018-09-26T04:48:58.808Z,3.40
2018-09-26T04:49:32.009Z,3.42
2018-09-26T04:50:06.286Z,3.33
2018-09-26T04:50:39.687Z,2.52
2018-09-26T04:51:12.856Z,2.40
2018-09-26T04:51:46.508Z,2.80
2018-09-26T04:52:19.706Z,2.72
2018-09-26T04:52:53.038Z,3.35
2018-09-26T04:53:26.604Z,2.55
2018-09-26T04:53:59.846Z,2.60
2018-09-26T04:54:33.084Z,2.70
2018-09-26T04:55:06.257Z,2.25
2018-09-26T04:55:39.570Z,2.22
2018-09-26T04:56:12.813Z,3.62
2018-09-26T04:56:45.985Z,3.17
2018-09-26T04:57:19.184Z,3.00
2018-09-26T04:57:52.497Z,2.58
2018-09-26T04:58:25.716Z,2.87
2018-09-26T04:58:58.922Z,2.70
2018-09-26T04:59:32.094Z,2.70
2018-09-26T05:00:05.473Z,2.45
2018-09-26T05:00:38.706Z,2.87
2018-09-26T05:01:11.926Z,2.90
2018-09-26T05:01:45.234Z,3.10
2018-09-26T05:02:18.725Z,3.35
2018-09-26T05:02:51.914Z,3.08
2018-09-26T05:03:25.318Z,2.65
2018-09-26T05:03:59.384Z,2.70
2018-09-26T05:04:32.783Z,2.85
2018-09-26T05:05:06.436Z,3.10
2018-09-26T05:05:39.951Z,3.40
2018-09-26T05:06:13.231Z,2.85
2018-09-26T05:06:46.912Z,2.90
2018-09-26T05:07:20.780Z,2.90
2018-09-26T05:07:54.188Z,2.95
2018-09-26T05:08:27.448Z,2.50
2018-09-26T05:09:00.624Z,3.15
2018-09-26T05:09:33.918Z,3.05
2018-09-26T05:10:08.177Z,3.00
2018-09-26T05:10:41.452Z,3.40
2018-09-26T05:11:14.653Z,2.98
2018-09-26T05:11:47.811Z,2.80
2018-09-26T05:12:21.306Z,2.55
2018-09-26T05:12:54.526Z,3.20
2018-09-26T05:13:27.722Z,3.33
2018-09-26T05:14:01.331Z,3.02
2018-09-26T05:14:34.696Z,3.47
2018-09-26T05:15:08.792Z,3.15
2018-09-26T05:15:42.309Z,3.80
2018-09-26T05:16:15.546Z,3.87
2018-09-26T05:16:48.769Z,3.17
2018-09-26T05:17:22.102Z,3.27
2018-09-26T05:17:56.433Z,3.85
2018-09-26T05:18:30.661Z,3.50
2018-09-26T05:19:04.040Z,3.30
2018-09-26T05:19:37.247Z,3.30
2018-09-26T05:20:10.422Z,3.37
2018-09-26T05:20:43.591Z,3.40
2018-09-26T05:21:16.767Z,3.70
2018-09-26T05:21:49.943Z,4.17
2018-09-26T05:22:23.151Z,3.40
2018-09-26T05:22:56.673Z,3.33
2018-09-26T05:23:30.342Z,3.37
2018-09-26T05:24:04.528Z,3.75
2018-09-26T05:24:37.865Z,4.37
2018-09-26T05:25:11.334Z,3.65
2018-09-26T05:25:44.509Z,4.45
2018-09-26T05:26:17.948Z,3.50
2018-09-26T05:26:51.257Z,3.22
2018-09-26T05:27:24.521Z,3.47
2018-09-26T05:27:57.672Z,3.52
2018-09-26T05:28:30.942Z,3.27
2018-09-26T05:29:04.092Z,3.50
2018-09-26T05:29:37.438Z,3.87
2018-09-26T05:30:11.173Z,3.60
2018-09-26T05:30:44.423Z,4.12
2018-09-26T05:31:17.692Z,3.75
2018-09-26T05:31:51.685Z,3.37
2018-09-26T05:32:24.946Z,3.77
2018-09-26T05:32:58.159Z,4.03
2018-09-26T05:33:31.521Z,4.30
2018-09-26T05:34:05.033Z,3.77
2018-09-26T05:34:38.532Z,4.50
2018-09-26T05:35:11.981Z,3.12
2018-09-26T05:35:45.436Z,3.87
2018-09-26T05:36:18.755Z,3.25
2018-09-26T05:36:52.509Z,3.70
2018-09-26T05:37:25.842Z,3.77
2018-09-26T05:37:59.228Z,3.95
2018-09-26T05:38:32.590Z,4.25
2018-09-26T05:39:08.196Z,3.90
2018-09-26T05:39:41.700Z,5.10
2018-09-26T05:40:15.414Z,3.20
2018-09-26T05:40:48.875Z,3.83
2018-09-26T05:41:22.023Z,3.75
2018-09-26T05:41:55.710Z,3.95
2018-09-26T05:42:29.253Z,3.77
2018-09-26T05:43:03.228Z,4.53
2018-09-26T05:43:36.468Z,4.87
2018-09-26T05:44:09.883Z,4.47
2018-09-26T05:44:43.477Z,3.55
2018-09-26T05:45:17.169Z,4.40
2018-09-26T05:45:51.177Z,4.15
2018-09-26T05:46:25.188Z,4.15
2018-09-26T05:46:58.726Z,3.90
2018-09-26T05:47:32.243Z,4.62
2018-09-26T05:48:05.922Z,3.83
2018-09-26T05:48:39.547Z,4.03
2018-09-26T05:49:12.802Z,4.15
2018-09-26T05:49:46.073Z,4.70
2018-09-26T05:50:19.547Z,3.60
2018-09-26T05:50:53.140Z,3.50
2018-09-26T05:51:26.328Z,4.20
2018-09-26T05:51:59.694Z,4.05
2018-09-26T05:52:33.019Z,3.55
2018-09-26T05:53:06.348Z,3.50
2018-09-26T05:53:39.849Z,4.87
2018-09-26T05:54:13.266Z,3.77
2018-09-26T05:54:46.643Z,3.90
2018-09-26T05:55:20.095Z,3.60
2018-09-26T05:55:53.576Z,4.30
2018-09-26T05:56:26.895Z,3.83
2018-09-26T05:57:00.345Z,3.60
2018-09-26T05:57:33.693Z,3.75
2018-09-26T05:58:07.354Z,3.90
2018-09-26T05:58:40.920Z,3.50
2018-09-26T05:59:14.329Z,3.83
2018-09-26T05:59:47.643Z,3.70
2018-09-26T06:00:20.948Z,3.50
2018-09-26T06:00:54.471Z,4.05
2018-09-26T06:01:28.176Z,3.50
2018-09-26T06:02:01.490Z,3.67
2018-09-26T06:02:35.193Z,4.05
2018-09-26T06:03:08.598Z,3.42
2018-09-26T06:03:41.973Z,3.65
2018-09-26T06:04:15.728Z,3.22
2018-09-26T06:04:50.032Z,4.45
2018-09-26T06:05:23.223Z,4.42
2018-09-26T06:05:56.462Z,3.50
2018-09-26T06:06:29.810Z,3.80
2018-09-26T06:07:03.396Z,3.27
2018-09-26T06:07:37.839Z,3.45
2018-09-26T06:08:12.118Z,3.40
2018-09-26T06:08:45.248Z,4.12
2018-09-26T06:09:18.637Z,3.33
2018-09-26T06:09:51.831Z,3.30
2018-09-26T06:10:25.285Z,3.65
2018-09-26T06:10:58.578Z,2.98
2018-09-26T06:11:32.092Z,3.00
2018-09-26T06:12:05.541Z,2.98
2018-09-26T06:12:38.962Z,2.90
2018-09-26T06:13:12.169Z,3.70
2018-09-26T06:13:45.629Z,3.50
2018-09-26T06:14:18.870Z,2.87
2018-09-26T06:14:53.193Z,3.58
2018-09-26T06:15:26.459Z,3.05
2018-09-26T06:16:00.885Z,3.52
2018-09-26T06:16:34.829Z,3.67
2018-09-26T06:17:08.893Z,3.17
2018-09-26T06:17:42.130Z,3.67
2018-09-26T06:18:15.486Z,3.70
2018-09-26T06:18:48.689Z,2.60
2018-09-26T06:19:21.977Z,3.50
2018-09-26T06:19:57.545Z,3.10
2018-09-26T06:20:30.820Z,3.25
2018-09-26T06:21:04.682Z,2.98
2018-09-26T06:21:38.066Z,3.72
2018-09-26T06:22:12.087Z,3.50
2018-09-26T06:22:46.098Z,3.75
2018-09-26T06:23:22.582Z,4.40
2018-09-26T06:23:55.988Z,3.30
2018-09-26T06:24:29.197Z,3.45
2018-09-26T06:25:02.361Z,3.37
2018-09-26T06:25:35.601Z,3.05
2018-09-26T06:26:08.966Z,3.62
2018-09-26T06:26:42.114Z,2.95
2018-09-26T06:27:16.164Z,3.42
2018-09-26T06:27:50.355Z,2.83
2018-09-26T06:28:23.643Z,3.30
2018-09-26T06:28:56.827Z,2.72
2018-09-26T06:29:30.209Z,2.85
2018-09-26T06:30:03.450Z,3.02
2018-09-26T06:30:36.655Z,2.80
2018-09-26T06:31:10.883Z,2.75
2018-09-26T06:31:44.134Z,3.17
2018-09-26T06:32:18.384Z,3.10
2018-09-26T06:32:51.680Z,2.62
2018-09-26T06:33:24.965Z,2.80
2018-09-26T06:33:59.082Z,2.80
2018-09-26T06:34:32.507Z,3.35
2018-09-26T06:35:05.878Z,3.87
2018-09-26T06:35:40.022Z,3.83
2018-09-26T06:36:13.278Z,3.02
2018-09-26T06:36:46.549Z,2.75
2018-09-26T06:37:20.178Z,3.25
2018-09-26T06:37:54.487Z,2.70
2018-09-26T06:38:28.028Z,2.87
2018-09-26T06:39:01.375Z,3.22
2018-09-26T06:39:34.697Z,2.52
2018-09-26T06:40:07.939Z,2.87
2018-09-26T06:40:41.572Z,2.80
2018-09-26T06:41:14.782Z,2.65
2018-09-26T06:41:49.084Z,2.72
2018-09-26T06:42:22.610Z,2.80
2018-09-26T06:42:56.159Z,2.60
2018-09-26T06:43:29.394Z,2.77
2018-09-26T06:44:02.549Z,2.80
2018-09-26T06:44:35.781Z,2.62
2018-09-26T06:45:09.536Z,2.72
2018-09-26T06:45:43.051Z,2.65
2018-09-26T06:46:16.364Z,2.67
2018-09-26T06:46:49.765Z,2.70
2018-09-26T06:47:23.473Z,2.67
2018-09-26T06:47:56.773Z,3.52
2018-09-26T06:48:31.084Z,2.65
2018-09-26T06:49:04.243Z,3.62
2018-09-26T06:49:37.462Z,2.98
2018-09-26T06:50:10.971Z,2.30
2018-09-26T06:50:44.260Z,3.20
2018-09-26T06:51:17.859Z,2.40
2018-09-26T06:51:51.198Z,2.65
2018-09-26T06:52:24.723Z,2.40
2018-09-26T06:52:59.738Z,2.55
2018-09-26T06:53:33.271Z,2.70
2018-09-26T06:54:06.504Z,2.70
2018-09-26T06:54:39.840Z,2.80
2018-09-26T06:55:13.198Z,2.27
2018-09-26T06:55:46.582Z,2.85
2018-09-26T06:56:20.277Z,2.75
2018-09-26T06:56:53.613Z,3.08
2018-09-26T06:57:27.080Z,3.33
2018-09-26T06:58:00.339Z,2.65
2018-09-26T06:58:33.557Z,2.98
2018-09-26T06:59:07.037Z,2.40
2018-09-26T06:59:40.215Z,2.70
2018-09-26T07:00:13.543Z,2.65
2018-09-26T07:00:46.852Z,2.40
2018-09-26T07:01:20.228Z,2.80
2018-09-26T07:01:54.270Z,2.50
2018-09-26T07:02:27.971Z,2.55
2018-09-26T07:03:01.355Z,2.87
2018-09-26T07:03:34.743Z,3.45
2018-09-26T07:04:09.293Z,3.02
2018-09-26T07:04:42.739Z,2.30
2018-09-26T07:05:15.958Z,2.02
2018-09-26T07:05:49.129Z,2.00
2018-09-26T07:06:23.006Z,2.22
2018-09-26T07:06:58.535Z,3.00
2018-09-26T07:07:35.324Z,2.40
2018-09-26T07:08:08.551Z,2.60
2018-09-26T07:08:43.108Z,2.55
2018-09-26T07:09:17.887Z,2.65
2018-09-26T07:09:51.156Z,2.20
2018-09-26T07:10:24.471Z,2.52
2018-09-26T07:10:57.658Z,2.25
2018-09-26T07:11:31.158Z,2.67
2018-09-26T07:12:04.514Z,2.55
2018-09-26T07:12:37.775Z,2.20
2018-09-26T07:13:10.998Z,2.90
2018-09-26T07:13:44.619Z,2.50
2018-09-26T07:14:18.996Z,2.42
2018-09-26T07:14:52.946Z,2.25
2018-09-26T07:15:26.445Z,2.17
2018-09-26T07:15:59.683Z,2.50
2018-09-26T07:16:33.611Z,2.55
2018-09-26T07:17:07.096Z,2.45
2018-09-26T07:17:40.353Z,2.33
2018-09-26T07:18:13.744Z,2.55
2018-09-26T07:18:48.044Z,2.70
2018-09-26T07:19:21.346Z,3.02
2018-09-26T07:19:54.831Z,2.40
2018-09-26T07:20:28.356Z,2.52
2018-09-26T07:21:03.185Z,2.55
2018-09-26T07:21:36.632Z,2.40
2018-09-26T07:22:12.193Z,2.40
2018-09-26T07:22:46.455Z,2.15
2018-09-26T07:23:20.915Z,2.50
2018-09-26T07:23:54.413Z,2.25
2018-09-26T07:24:27.674Z,2.70
2018-09-26T07:25:01.102Z,2.47
2018-09-26T07:25:34.409Z,2.60
2018-09-26T07:26:07.765Z,2.40
2018-09-26T07:26:42.639Z,2.17
2018-09-26T07:27:18.491Z,2.65
2018-09-26T07:27:53.619Z,2.30
2018-09-26T07:28:28.497Z,2.80
2018-09-26T07:29:03.088Z,2.50
2018-09-26T07:29:37.402Z,2.00